createdAt,value
2022-09-03T00:01:43.842Z,8.52
2022-09-03T00:04:25.659Z,8.73
2022-09-03T00:07:01.286Z,8.57
2022-09-03T00:09:35.187Z,9.10
2022-09-03T00:12:11.171Z,9.15
2022-09-03T00:14:41.875Z,9.05
2022-09-03T00:17:14.483Z,8.57
2022-09-03T00:19:53.252Z,8.77
2022-09-03T00:22:25.824Z,9.80
2022-09-03T00:24:54.090Z,10.07
2022-09-03T00:27:25.041Z,9.20
2022-09-03T00:29:58.174Z,9.32
2022-09-03T00:32:34.609Z,10.43
2022-09-03T00:35:09.536Z,10.48
2022-09-03T00:37:38.470Z,10.68
2022-09-03T00:40:18.342Z,10.60
2022-09-03T00:42:53.850Z,10.30
2022-09-03T00:45:33.238Z,10.45
2022-09-03T00:48:11.727Z,13.23
2022-09-03T00:50:53.355Z,13.90
2022-09-03T00:53:28.542Z,12.73
2022-09-03T00:56:04.175Z,12.02
2022-09-03T00:58:49.939Z,11.25
2022-09-03T01:01:21.494Z,10.30
2022-09-03T01:03:58.947Z,10.95
2022-09-03T01:06:35.672Z,12.13
2022-09-03T01:09:12.396Z,12.27
2022-09-03T01:11:51.343Z,12.20
2022-09-03T01:14:30.038Z,13.25
2022-09-03T01:17:04.251Z,12.77
2022-09-03T01:19:58.495Z,14.75
2022-09-03T01:22:55.578Z,14.48
2022-09-03T01:25:38.523Z,12.40
2022-09-03T01:28:19.221Z,13.25
2022-09-03T01:30:55.750Z,11.93
2022-09-03T01:33:28.735Z,13.02
2022-09-03T01:36:05.291Z,12.10
2022-09-03T01:38:38.609Z,12.20
2022-09-03T01:41:13.678Z,12.30
2022-09-03T01:43:49.125Z,12.43
2022-09-03T01:46:22.997Z,12.27
2022-09-03T01:48:56.014Z,12.70
2022-09-03T01:51:25.654Z,16.48
2022-09-03T01:56:43.836Z,13.82
2022-09-03T01:59:17.934Z,15.20
2022-09-03T02:01:51.271Z,16.73
2022-09-03T02:04:20.791Z,15.82
2022-09-03T02:06:49.002Z,14.57
2022-09-03T02:09:16.421Z,13.30
2022-09-03T02:11:46.924Z,13.82
2022-09-03T02:14:16.015Z,14.68
2022-09-03T02:16:43.560Z,13.95
2022-09-03T02:19:14.828Z,14.00
2022-09-03T02:21:47.973Z,13.38
2022-09-03T02:24:15.470Z,12.77
2022-09-03T02:26:42.996Z,13.02
2022-09-03T02:29:10.741Z,12.82
2022-09-03T02:31:39.738Z,13.73
2022-09-03T02:34:07.452Z,15.60
2022-09-03T02:36:38.345Z,15.20
2022-09-03T02:39:06.216Z,13.52
2022-09-03T02:41:34.155Z,13.48
2022-09-03T02:44:08.668Z,13.63
2022-09-03T02:46:43.547Z,13.88
2022-09-03T02:49:11.357Z,14.60
2022-09-03T02:51:40.649Z,12.68
2022-09-03T02:54:11.127Z,11.70
2022-09-03T02:56:38.905Z,12.13
2022-09-03T02:59:08.667Z,11.23
2022-09-03T03:01:36.739Z,11.43
2022-09-03T03:04:05.934Z,10.75
2022-09-03T03:06:33.379Z,10.63
2022-09-03T03:09:00.905Z,11.32
2022-09-03T03:11:28.295Z,10.75
2022-09-03T03:13:55.844Z,12.30
2022-09-03T03:16:23.387Z,12.40
2022-09-03T03:18:50.813Z,10.65
2022-09-03T03:21:20.919Z,9.73
2022-09-03T03:23:48.369Z,10.13
2022-09-03T03:26:18.336Z,10.25
2022-09-03T03:28:46.610Z,10.23
2022-09-03T03:31:16.910Z,9.75
2022-09-03T03:33:45.701Z,10.55
2022-09-03T03:36:15.106Z,9.35
2022-09-03T03:38:45.075Z,8.95
2022-09-03T03:41:14.868Z,8.85
2022-09-03T03:43:42.456Z,8.80
2022-09-03T03:46:10.820Z,7.32
2022-09-03T03:48:39.236Z,7.70
2022-09-03T03:51:07.987Z,8.55
2022-09-03T03:53:36.983Z,8.47
2022-09-03T03:56:08.051Z,7.70
2022-09-03T03:58:35.721Z,8.30
2022-09-03T04:01:07.533Z,8.43
2022-09-03T04:03:35.028Z,8.07
2022-09-03T04:06:02.737Z,7.88
2022-09-03T04:08:30.656Z,7.10
2022-09-03T04:11:00.639Z,6.30
2022-09-03T04:13:30.956Z,7.07
2022-09-03T04:16:02.203Z,6.15
2022-09-03T04:18:30.135Z,5.93
2022-09-03T04:21:00.576Z,5.90
2022-09-03T04:23:28.635Z,6.40
2022-09-03T04:25:56.019Z,7.30
2022-09-03T04:28:25.166Z,8.40
2022-09-03T04:30:54.699Z,6.28
2022-09-03T04:33:25.487Z,6.13
2022-09-03T04:35:52.903Z,5.72
2022-09-03T04:38:20.320Z,5.85
2022-09-03T04:40:52.875Z,5.50
2022-09-03T04:43:20.301Z,6.93
2022-09-03T04:45:47.734Z,6.65
2022-09-03T04:48:16.649Z,6.75
2022-09-03T04:50:44.057Z,5.82
2022-09-03T04:53:11.784Z,7.22
2022-09-03T04:55:39.240Z,5.93
2022-09-03T04:58:06.714Z,6.40
2022-09-03T05:00:34.214Z,6.25
2022-09-03T05:03:01.812Z,5.65
2022-09-03T05:05:30.777Z,5.78
2022-09-03T05:07:58.883Z,5.70
2022-09-03T05:10:26.354Z,4.80
2022-09-03T05:12:59.271Z,4.60
2022-09-03T05:15:26.786Z,4.68
2022-09-03T05:17:57.184Z,5.00
2022-09-03T05:20:24.605Z,4.97
2022-09-03T05:22:53.470Z,4.45
2022-09-03T05:25:20.934Z,4.70
2022-09-03T05:27:48.737Z,4.18
2022-09-03T05:30:16.265Z,4.05
2022-09-03T05:32:43.673Z,3.60
2022-09-03T05:35:11.079Z,4.10
2022-09-03T05:37:38.568Z,4.50
2022-09-03T05:40:09.327Z,4.38
2022-09-03T05:42:36.948Z,4.53
2022-09-03T05:45:07.593Z,3.97
2022-09-03T05:47:35.082Z,4.00
2022-09-03T05:50:02.942Z,3.90
2022-09-03T05:52:30.343Z,4.32
2022-09-03T05:54:57.774Z,3.70
2022-09-03T05:57:26.596Z,4.55
2022-09-03T05:59:53.999Z,4.40
2022-09-03T06:02:21.494Z,4.40
2022-09-03T06:04:48.955Z,4.70
2022-09-03T06:07:16.331Z,4.30
2022-09-03T06:09:43.722Z,4.65
2022-09-03T06:12:11.233Z,4.43
2022-09-03T06:14:40.074Z,4.28
2022-09-03T06:17:07.598Z,4.83
2022-09-03T06:19:35.000Z,4.28
2022-09-03T06:22:02.446Z,4.60
2022-09-03T06:24:29.848Z,4.60
2022-09-03T06:26:57.682Z,4.63
2022-09-03T06:29:25.278Z,4.32
2022-09-03T06:31:54.260Z,3.65
2022-09-03T06:34:21.933Z,4.20
2022-09-03T06:36:49.312Z,4.70
2022-09-03T06:39:16.885Z,4.50
2022-09-03T06:41:44.304Z,4.50
2022-09-03T06:44:12.066Z,4.45
2022-09-03T06:46:41.053Z,4.15
2022-09-03T06:49:12.818Z,4.63
2022-09-03T06:51:40.536Z,4.82
2022-09-03T06:54:09.750Z,4.95
2022-09-03T06:56:40.629Z,5.05
2022-09-03T06:59:09.975Z,5.03
2022-09-03T07:01:37.875Z,4.70
2022-09-03T07:04:05.936Z,5.00
2022-09-03T07:06:36.920Z,4.85
2022-09-03T07:09:04.646Z,5.22
2022-09-03T07:11:32.600Z,5.10
2022-09-03T07:14:00.428Z,5.28
2022-09-03T07:16:29.098Z,5.57
2022-09-03T07:18:56.807Z,5.63
2022-09-03T07:21:26.304Z,5.50
2022-09-03T07:23:56.577Z,5.80
2022-09-03T07:26:26.698Z,5.88
2022-09-03T07:28:54.858Z,6.13
2022-09-03T07:31:23.962Z,5.43
2022-09-03T07:33:53.324Z,5.57
2022-09-03T07:36:20.727Z,5.30
2022-09-03T07:38:48.247Z,4.38
2022-09-03T07:41:21.787Z,5.88
2022-09-03T07:43:56.818Z,6.85
2022-09-03T07:46:26.128Z,6.32
2022-09-03T07:48:55.280Z,6.50
2022-09-03T07:51:24.461Z,6.28
2022-09-03T07:53:54.675Z,5.57
2022-09-03T07:56:24.260Z,6.68
2022-09-03T07:58:51.781Z,6.75
2022-09-03T08:01:20.835Z,6.28
2022-09-03T08:03:50.879Z,5.80
2022-09-03T08:06:19.735Z,6.28
2022-09-03T08:08:47.471Z,6.07
2022-09-03T08:11:16.590Z,6.53
2022-09-03T08:13:46.933Z,6.38
2022-09-03T08:16:16.371Z,5.88
2022-09-03T08:18:44.239Z,6.85
2022-09-03T08:21:13.704Z,6.28
2022-09-03T08:23:42.831Z,6.68
2022-09-03T08:26:10.800Z,6.32
2022-09-03T08:28:38.652Z,6.80
2022-09-03T08:31:09.708Z,6.95
2022-09-03T08:33:37.269Z,6.72
2022-09-03T08:36:06.780Z,6.65
2022-09-03T08:38:34.973Z,6.53
2022-09-03T08:41:07.481Z,6.10
2022-09-03T08:43:48.883Z,6.80
2022-09-03T08:46:17.941Z,6.47
2022-09-03T08:48:46.214Z,6.93
2022-09-03T08:51:14.909Z,7.15
2022-09-03T08:53:47.065Z,6.93
2022-09-03T08:56:21.395Z,6.93
2022-09-03T08:58:48.886Z,6.75
2022-09-03T09:01:31.241Z,6.55
2022-09-03T09:04:09.758Z,6.68
2022-09-03T09:06:43.602Z,6.50
2022-09-03T09:09:20.963Z,6.60
2022-09-03T09:11:58.195Z,7.70
2022-09-03T09:14:32.548Z,7.13
2022-09-03T09:17:14.571Z,6.90
2022-09-03T09:19:53.867Z,6.63
2022-09-03T09:22:28.263Z,6.85
2022-09-03T09:24:58.768Z,6.82
2022-09-03T09:27:26.276Z,6.88
2022-09-03T09:29:55.017Z,7.00
2022-09-03T09:32:23.928Z,7.40
2022-09-03T09:34:52.582Z,6.43
2022-09-03T09:37:20.891Z,7.57
2022-09-03T09:39:56.537Z,7.28
2022-09-03T09:42:24.608Z,6.63
2022-09-03T09:44:52.414Z,7.65
2022-09-03T09:47:27.037Z,6.82
2022-09-03T09:49:56.172Z,6.85
2022-09-03T09:52:24.720Z,7.30
2022-09-03T09:54:53.515Z,6.35
2022-09-03T09:57:23.954Z,6.23
2022-09-03T10:00:03.044Z,7.10
2022-09-03T10:02:45.446Z,7.35
2022-09-03T10:05:15.422Z,6.90
2022-09-03T10:07:42.892Z,7.10
2022-09-03T10:10:18.349Z,5.75
2022-09-03T10:12:48.996Z,6.00
2022-09-03T10:15:25.810Z,5.40
2022-09-03T10:18:00.445Z,5.25
2022-09-03T10:20:36.683Z,5.43
2022-09-03T10:23:11.800Z,5.30
2022-09-03T10:25:46.253Z,5.35
2022-09-03T10:28:13.760Z,5.18
2022-09-03T10:31:04.150Z,5.65
2022-09-03T10:33:39.205Z,4.43
2022-09-03T10:36:16.925Z,4.75
2022-09-03T10:38:46.797Z,4.97
2022-09-03T10:41:26.779Z,5.30
2022-09-03T10:44:14.075Z,4.50
2022-09-03T10:46:50.973Z,4.57
2022-09-03T10:49:38.557Z,4.43
2022-09-03T10:52:13.326Z,4.53
2022-09-03T10:54:58.063Z,4.07
2022-09-03T10:57:38.127Z,4.20
2022-09-03T11:00:09.285Z,4.32
2022-09-03T11:03:08.093Z,3.90
2022-09-03T11:05:40.329Z,3.80
2022-09-03T11:08:12.590Z,3.67
2022-09-03T11:10:45.186Z,3.50
2022-09-03T11:13:17.735Z,3.60
2022-09-03T11:15:51.267Z,3.70
2022-09-03T11:18:25.963Z,4.13
2022-09-03T11:20:59.905Z,3.13
2022-09-03T11:23:29.573Z,3.45
2022-09-03T11:26:01.867Z,3.60
2022-09-03T11:28:40.347Z,3.40
2022-09-03T11:31:21.683Z,3.40
2022-09-03T11:33:55.009Z,3.60
2022-09-03T11:36:32.372Z,3.58
2022-09-03T11:38:59.820Z,3.28
2022-09-03T11:41:28.440Z,3.55
2022-09-03T11:43:55.887Z,3.72
2022-09-03T11:46:30.800Z,4.25
2022-09-03T11:49:10.516Z,3.40
2022-09-03T11:54:24.055Z,3.40
2022-09-03T11:56:51.958Z,2.85
2022-09-03T11:59:24.028Z,3.03
2022-09-03T12:01:58.722Z,3.00
2022-09-03T12:04:35.208Z,3.00
2022-09-03T12:07:25.958Z,3.42
2022-09-03T12:10:17.848Z,3.40
2022-09-03T12:12:59.172Z,2.63
2022-09-03T12:15:42.612Z,2.58
2022-09-03T12:18:14.597Z,2.83
2022-09-03T12:20:42.785Z,2.83
2022-09-03T12:23:12.940Z,2.65
2022-09-03T12:25:44.132Z,2.92
2022-09-03T12:28:16.977Z,3.08
2022-09-03T12:30:44.403Z,3.03
2022-09-03T12:33:17.171Z,3.30
2022-09-03T12:36:00.342Z,2.90
2022-09-03T12:38:30.400Z,2.70
2022-09-03T12:43:51.922Z,3.10
2022-09-03T12:46:22.560Z,2.92
2022-09-03T12:51:49.971Z,2.85
2022-09-03T12:54:22.277Z,3.00
2022-09-03T12:56:57.173Z,2.92
2022-09-03T12:59:29.020Z,3.20
2022-09-03T13:02:00.548Z,3.28
2022-09-03T13:04:31.420Z,4.80
2022-09-03T13:07:05.385Z,3.67
2022-09-03T13:09:38.131Z,4.00
2022-09-03T13:12:06.120Z,3.55
2022-09-03T13:14:43.376Z,3.83
2022-09-03T13:17:30.544Z,3.30
2022-09-03T13:20:25.931Z,3.92
2022-09-03T13:23:21.244Z,4.65
2022-09-03T13:25:59.232Z,3.10
2022-09-03T13:28:41.349Z,3.05
2022-09-03T13:33:53.624Z,2.60
2022-09-03T13:36:26.692Z,2.28
2022-09-03T13:38:58.747Z,2.40
2022-09-03T13:41:37.728Z,2.50
2022-09-03T13:44:11.808Z,2.50
2022-09-03T13:46:47.037Z,2.10
2022-09-03T13:49:34.943Z,2.65
2022-09-03T13:52:07.011Z,1.98
2022-09-03T13:54:49.167Z,2.17
2022-09-03T13:57:30.528Z,1.90
2022-09-03T14:00:02.773Z,2.00
2022-09-03T14:02:46.677Z,2.03
2022-09-03T14:05:19.851Z,2.42
2022-09-03T14:08:01.840Z,2.03
2022-09-03T14:10:39.519Z,2.15
2022-09-03T14:13:19.254Z,2.00
2022-09-03T14:15:52.457Z,2.08
2022-09-03T14:18:40.007Z,2.10
2022-09-03T14:21:11.873Z,2.30
2022-09-03T14:23:46.192Z,2.42
2022-09-03T14:26:27.109Z,2.13
2022-09-03T14:29:15.555Z,2.17
2022-09-03T14:32:10.181Z,2.05
2022-09-03T14:34:53.158Z,2.10
2022-09-03T14:37:39.421Z,2.15
2022-09-03T14:40:15.755Z,1.80
2022-09-03T14:43:02.044Z,1.85
2022-09-03T14:45:52.473Z,1.80
2022-09-03T14:48:37.590Z,1.73
2022-09-03T14:51:19.893Z,1.98
2022-09-03T14:54:10.774Z,1.73
2022-09-03T14:56:49.422Z,1.70
2022-09-03T14:59:48.974Z,1.80
2022-09-03T15:02:43.436Z,1.63
2022-09-03T15:05:21.732Z,1.70
2022-09-03T15:07:53.353Z,1.80
2022-09-03T15:10:32.559Z,1.60
2022-09-03T15:13:08.392Z,1.88
2022-09-03T15:15:54.602Z,1.98
2022-09-03T15:18:30.908Z,1.83
2022-09-03T15:21:13.726Z,1.92
2022-09-03T15:23:59.165Z,2.45
2022-09-03T15:26:46.791Z,2.15
2022-09-03T15:29:36.525Z,2.40
2022-09-03T15:32:14.312Z,2.50
2022-09-03T15:35:02.734Z,2.80
2022-09-03T15:37:37.425Z,2.80
2022-09-03T15:40:15.604Z,3.00
2022-09-03T15:42:46.528Z,2.97
2022-09-03T15:45:26.131Z,2.88
2022-09-03T15:50:34.046Z,3.00
2022-09-03T15:53:09.186Z,2.92
2022-09-03T15:55:39.320Z,3.30
2022-09-03T15:58:24.359Z,3.55
2022-09-03T16:00:58.044Z,3.70
2022-09-03T16:03:36.097Z,3.40
2022-09-03T16:06:11.869Z,3.53
2022-09-03T16:08:47.217Z,3.40
2022-09-03T16:11:21.979Z,3.38
2022-09-03T16:14:03.621Z,3.88
2022-09-03T16:16:48.036Z,3.30
2022-09-03T16:19:21.929Z,4.50
2022-09-03T16:21:58.747Z,3.45
2022-09-03T16:24:33.832Z,3.40
2022-09-03T16:27:07.810Z,3.42
2022-09-03T16:29:35.526Z,3.97
2022-09-03T16:32:24.323Z,3.60
2022-09-03T16:35:03.395Z,3.60
2022-09-03T16:37:40.037Z,3.45
2022-09-03T16:40:16.704Z,3.20
2022-09-03T16:42:53.919Z,3.08
2022-09-03T16:45:30.566Z,3.63
2022-09-03T16:48:19.919Z,3.08
2022-09-03T16:51:02.499Z,3.53
2022-09-03T16:53:47.183Z,3.63
2022-09-03T16:56:32.164Z,3.42
2022-09-03T16:59:05.613Z,3.45
2022-09-03T17:01:51.834Z,3.38
2022-09-03T17:05:03.971Z,2.88
2022-09-03T17:07:50.530Z,3.30
2022-09-03T17:10:28.030Z,3.28
2022-09-03T17:13:11.293Z,3.47
2022-09-03T17:15:44.756Z,3.13
2022-09-03T17:18:27.232Z,3.58
2022-09-03T17:21:12.226Z,4.05
2022-09-03T17:24:00.057Z,3.30
2022-09-03T17:26:39.913Z,4.53
2022-09-03T17:29:25.585Z,6.47
2022-09-03T17:32:01.505Z,4.50
2022-09-03T17:34:41.815Z,3.80
2022-09-03T17:37:22.178Z,3.08
2022-09-03T17:40:01.499Z,3.47
2022-09-03T17:42:40.935Z,3.95
2022-09-03T17:45:15.324Z,4.32
2022-09-03T17:48:13.552Z,5.05
2022-09-03T17:50:50.904Z,4.72
2022-09-03T17:53:21.840Z,3.80
2022-09-03T17:55:56.739Z,3.80
2022-09-03T17:58:31.904Z,3.70
2022-09-03T18:01:07.781Z,4.05
2022-09-03T18:03:44.458Z,3.13
2022-09-03T18:06:23.236Z,3.70
2022-09-03T18:08:57.822Z,3.40
2022-09-03T18:11:34.076Z,2.80
2022-09-03T18:14:14.040Z,3.25
2022-09-03T18:16:50.405Z,2.90
2022-09-03T18:19:28.970Z,3.30
2022-09-03T18:21:59.058Z,2.83
2022-09-03T18:24:30.655Z,3.17
2022-09-03T18:27:00.219Z,3.22
2022-09-03T18:29:37.359Z,3.20
2022-09-03T18:32:05.882Z,3.42
2022-09-03T18:34:35.412Z,3.35
2022-09-03T18:37:02.941Z,3.40
2022-09-03T18:39:30.408Z,3.15
2022-09-03T18:42:06.680Z,3.50
2022-09-03T18:44:57.849Z,3.03
2022-09-03T18:48:03.409Z,3.00
2022-09-03T18:50:41.908Z,3.00
2022-09-03T18:53:14.365Z,2.88
2022-09-03T18:55:55.962Z,3.00
2022-09-03T18:58:30.155Z,3.22
2022-09-03T19:01:05.413Z,3.13
2022-09-03T19:03:43.631Z,2.88
2022-09-03T19:06:23.437Z,3.38
2022-09-03T19:09:00.487Z,3.30
2022-09-03T19:11:31.094Z,3.80
2022-09-03T19:14:04.568Z,3.35
2022-09-03T19:16:48.845Z,3.65
2022-09-03T19:19:47.850Z,3.42
2022-09-03T19:22:26.966Z,3.55
2022-09-03T19:25:02.397Z,4.10
2022-09-03T19:27:58.907Z,4.10
2022-09-03T19:30:33.004Z,4.60
2022-09-03T19:33:11.937Z,3.70
2022-09-03T19:35:54.702Z,4.43
2022-09-03T19:38:35.533Z,3.10
2022-09-03T19:41:14.492Z,3.60
2022-09-03T19:43:56.108Z,3.40
2022-09-03T19:46:33.802Z,3.55
2022-09-03T19:49:16.064Z,3.17
2022-09-03T19:51:53.350Z,3.63
2022-09-03T19:54:24.589Z,3.88
2022-09-03T19:56:55.266Z,3.35
2022-09-03T19:59:29.161Z,4.38
2022-09-03T20:01:56.659Z,4.20
2022-09-03T20:04:33.105Z,4.10
2022-09-03T20:07:03.326Z,4.18
2022-09-03T20:09:36.295Z,5.40
2022-09-03T20:12:10.100Z,4.50
2022-09-03T20:14:37.851Z,4.28
2022-09-03T20:17:15.427Z,3.67
2022-09-03T20:20:00.822Z,4.55
2022-09-03T20:22:33.622Z,4.68
2022-09-03T20:25:23.678Z,3.53
2022-09-03T20:28:03.200Z,3.60
2022-09-03T20:30:37.845Z,3.65
2022-09-03T20:33:26.732Z,3.00
2022-09-03T20:36:07.271Z,3.80
2022-09-03T20:39:03.913Z,3.88
2022-09-03T20:41:43.451Z,3.58
2022-09-03T20:44:27.716Z,3.50
2022-09-03T20:47:12.069Z,3.55
2022-09-03T20:49:51.481Z,2.83
2022-09-03T20:52:23.864Z,3.00
2022-09-03T20:55:03.797Z,3.13
2022-09-03T20:57:40.870Z,3.05
2022-09-03T21:00:11.300Z,3.13
2022-09-03T21:03:07.548Z,3.35
2022-09-03T21:05:42.160Z,3.95
2022-09-03T21:08:24.460Z,4.22
2022-09-03T21:10:56.447Z,3.80
2022-09-03T21:13:38.949Z,3.95
2022-09-03T21:16:18.938Z,3.67
2022-09-03T21:18:59.704Z,3.80
2022-09-03T21:21:36.516Z,3.88
2022-09-03T21:24:11.851Z,3.75
2022-09-03T21:26:41.595Z,4.13
2022-09-03T21:31:47.376Z,3.92
2022-09-03T21:34:19.358Z,3.40
2022-09-03T21:36:48.765Z,3.47
2022-09-03T21:39:25.659Z,2.85
2022-09-03T21:41:58.593Z,2.90
2022-09-03T21:44:42.748Z,2.95
2022-09-03T21:47:11.743Z,3.28
2022-09-03T21:49:53.312Z,3.20
2022-09-03T21:52:27.331Z,3.40
2022-09-03T21:54:56.556Z,3.00
2022-09-03T21:57:32.339Z,3.17
2022-09-03T22:00:16.507Z,5.85
2022-09-03T22:02:44.286Z,5.97
2022-09-03T22:05:12.011Z,4.20
2022-09-03T22:07:59.125Z,3.63
2022-09-03T22:10:32.930Z,4.60
2022-09-03T22:13:09.117Z,3.50
2022-09-03T22:15:37.501Z,4.07
2022-09-03T22:18:11.199Z,6.85
2022-09-03T22:20:38.764Z,3.78
2022-09-03T22:23:12.286Z,3.28
2022-09-03T22:25:47.564Z,4.07
2022-09-03T22:28:23.745Z,3.28
2022-09-03T22:30:55.906Z,2.70
2022-09-03T22:33:28.922Z,2.50
2022-09-03T22:36:13.669Z,2.20
2022-09-03T22:39:03.794Z,2.25
2022-09-03T22:41:47.795Z,2.30
2022-09-03T22:44:28.600Z,2.05
2022-09-03T22:47:04.282Z,2.05
2022-09-03T22:49:38.085Z,2.30
2022-09-03T22:52:27.803Z,1.90
2022-09-03T22:57:39.984Z,2.22
2022-09-03T23:00:10.128Z,1.63
2022-09-03T23:02:40.294Z,1.88
2022-09-03T23:05:10.101Z,1.90
2022-09-03T23:07:49.694Z,1.77
2022-09-03T23:10:24.454Z,1.90
2022-09-03T23:13:06.619Z,1.92
2022-09-03T23:15:36.854Z,1.75
2022-09-03T23:18:08.280Z,1.80
2022-09-03T23:20:40.532Z,1.90
2022-09-03T23:23:16.709Z,1.65
2022-09-03T23:25:47.944Z,1.88
2022-09-03T23:28:22.561Z,1.73
2022-09-03T23:30:50.548Z,1.95
2022-09-03T23:33:17.992Z,1.83
2022-09-03T23:35:54.493Z,1.92
2022-09-03T23:38:29.997Z,1.70
2022-09-03T23:40:59.977Z,1.70
2022-09-03T23:43:57.912Z,1.80
2022-09-03T23:46:28.420Z,1.88
2022-09-03T23:49:16.111Z,2.17
2022-09-03T23:52:03.690Z,2.22
2022-09-03T23:54:39.296Z,2.10
2022-09-03T23:57:18.633Z,2.05
